Time;durP1;ratioP1;P1;durP2;ratioP2;P2;SDS_P1;SDS_P2;PMS_P1;PMS_P2;Temp;Humidity;BMP_temperature;BMP_pressure;BME280_temperature;BME280_humidity;BME280_pressure;Samples;Min_cycle;Max_cycle;Signal;HPM_P1;HPM_P2
2022/02/11 00:02:07;;;;;;;62.50;26.35;;;;;;;4.83;63.78;100705.19;5124663;28;20032;-75
2022/02/11 00:05:06;;;;;;;74.30;28.35;;;;;;;4.81;64.58;100715.78;5124876;27;20481;-74
2022/02/11 00:07:32;;;;;;;165.03;42.50;;;;;;;4.87;65.59;100708.44;5126468;27;20039;-73
2022/02/11 00:09:57;;;;;;;69.83;29.17;;;;;;;4.76;64.65;100712.63;5128731;27;20148;-73
2022/02/11 00:12:23;;;;;;;74.28;29.85;;;;;;;4.92;64.36;100706.34;5130361;27;20082;-73
2022/02/11 00:17:32;;;;;;;72.07;26.83;;;;;;;4.82;63.62;100700.88;5132702;27;20389;-73
2022/02/11 00:19:58;;;;;;;70.28;27.52;;;;;;;4.92;63.58;100716.84;5133514;27;20043;-74
2022/02/11 00:22:24;;;;;;;78.25;26.02;;;;;;;4.89;63.56;100715.28;5125113;27;20313;-75
2022/02/11 00:24:51;;;;;;;82.03;28.53;;;;;;;4.68;63.31;100691.31;5129199;27;20084;-76
2022/02/11 00:32:52;;;;;;;75.68;28.15;;;;;;;4.71;64.25;100714.72;5125161;27;20031;-77
2022/02/11 00:37:46;;;;;;;64.13;26.23;;;;;;;4.76;63.61;100707.38;5129950;27;20242;-74
2022/02/11 01:04:03;;;;;;;38.70;16.30;;;;;;;4.48;66.41;100690.00;5144441;27;20033;-73
2022/02/11 01:06:30;;;;;;;46.43;21.03;;;;;;;4.50;66.26;100689.88;5140912;27;20036;-74
2022/02/11 01:08:56;;;;;;;63.50;26.23;;;;;;;4.57;66.19;100698.19;5131289;27;20313;-75
2022/02/11 01:11:38;;;;;;;57.23;23.90;;;;;;;4.55;66.01;100690.44;5149346;27;20027;-75
2022/02/11 01:14:03;;;;;;;60.87;21.07;;;;;;;4.72;65.03;100697.19;5143535;27;20043;-75
2022/02/11 01:16:43;;;;;;;37.73;17.47;;;;;;;4.33;66.45;100698.84;5138028;27;20046;-74
2022/02/11 01:19:38;;;;;;;44.37;20.03;;;;;;;4.40;66.52;100686.19;5123540;28;20043;-75
2022/02/11 01:22:19;;;;;;;43.30;19.10;;;;;;;4.54;66.00;100687.91;5125477;27;20278;-74
2022/02/11 01:41:03;;;;;;;39.77;18.13;;;;;;;4.52;64.86;100666.19;5128523;27;20074;-76
2022/02/11 01:43:48;;;;;;;42.45;18.63;;;;;;;4.37;66.29;100673.28;5126356;27;20043;-75
2022/02/11 01:51:39;;;;;;;38.38;18.58;;;;;;;4.13;67.17;100673.03;5127798;27;20094;-76
2022/02/11 01:54:32;;;;;;;40.20;19.50;;;;;;;4.31;66.34;100678.91;5133221;27;20301;-74
2022/02/11 02:11:18;;;;;;;95.60;32.63;;;;;;;4.29;65.90;100658.03;5127651;27;20034;-76
2022/02/11 02:24:15;;;;;;;235.43;51.77;;;;;;;4.51;64.80;100649.59;5140908;27;20075;-74
2022/02/11 02:27:07;;;;;;;79.87;29.03;;;;;;;4.41;63.83;100646.75;5137676;27;20060;-74
2022/02/11 02:33:22;;;;;;;105.97;32.95;;;;;;;4.21;65.36;100639.34;5139871;27;20398;-74
2022/02/11 02:35:18;;;;;;;74.77;27.33;;;;;;;4.33;64.18;100662.16;5130209;27;20311;-75
2022/02/11 02:57:06;;;;;;;64.70;23.00;;;;;;;3.78;65.89;100675.28;5130852;28;20093;-77
2022/02/11 04:55:22;;;;;;;153.82;106.57;;;;;;;3.47;65.83;100674.56;5123045;28;20072;-77
2022/02/11 05:00:31;;;;;;;43.50;21.30;;;;;;;3.61;63.10;100668.47;5141974;27;20034;-78
2022/02/11 05:02:57;;;;;;;48.83;20.50;;;;;;;3.50;62.41;100686.63;5134862;27;20221;-76
2022/02/11 05:05:23;;;;;;;44.03;19.33;;;;;;;3.40;61.76;100673.25;5129446;27;20061;-76
2022/02/11 05:07:48;;;;;;;49.27;20.07;;;;;;;3.31;61.30;100668.59;5133788;27;20022;-79
2022/02/11 05:10:14;;;;;;;62.80;25.00;;;;;;;3.25;62.39;100668.97;5129276;27;20378;-79
2022/02/11 05:12:42;;;;;;;249.37;81.87;;;;;;;3.30;64.66;100681.75;5124081;27;20276;-76
2022/02/11 05:15:09;;;;;;;140.57;44.83;;;;;;;3.33;64.84;100676.34;5122539;28;20035;-77
2022/02/11 05:17:39;;;;;;;47.67;20.87;;;;;;;2.98;63.51;100671.41;5128191;27;20091;-77
2022/02/11 05:20:06;;;;;;;45.47;18.57;;;;;;;2.89;63.65;100672.81;5132966;27;20053;-77
2022/02/11 05:22:32;;;;;;;43.70;17.90;;;;;;;3.06;64.42;100687.50;5130182;27;20031;-78
2022/02/11 05:24:58;;;;;;;43.20;18.17;;;;;;;2.97;62.12;100676.75;5126392;27;20035;-77
2022/02/11 05:27:24;;;;;;;57.60;22.13;;;;;;;2.96;61.74;100678.53;5133725;27;20074;-75
2022/02/11 05:29:49;;;;;;;65.37;25.30;;;;;;;2.95;63.76;100676.00;5128639;27;20305;-79
2022/02/11 05:32:15;;;;;;;157.77;47.90;;;;;;;3.01;64.60;100679.09;5129430;27;20032;-78
2022/02/11 05:34:40;;;;;;;98.83;33.30;;;;;;;3.12;64.27;100694.16;5127274;27;20027;-76
2022/02/11 05:37:06;;;;;;;60.20;21.87;;;;;;;2.92;61.35;100673.56;5125711;27;20039;-77
2022/02/11 05:39:31;;;;;;;58.70;23.43;;;;;;;2.96;62.69;100688.16;5131819;27;20027;-77
2022/02/11 05:41:57;;;;;;;65.93;23.60;;;;;;;2.49;63.69;100600.25;5141639;27;20098;-77
2022/02/11 05:44:22;;;;;;;46.30;19.10;;;;;;;3.13;61.81;100699.31;5134271;27;20055;-78
2022/02/11 05:46:48;;;;;;;49.97;20.23;;;;;;;2.85;61.67;100673.94;5125410;27;20023;-78
2022/02/11 05:49:13;;;;;;;44.83;18.80;;;;;;;2.99;62.30;100695.81;5126761;27;20076;-75
2022/02/11 05:51:39;;;;;;;57.50;20.80;;;;;;;3.04;62.75;100699.84;5128278;27;20207;-76
2022/02/11 05:54:04;;;;;;;64.63;22.37;;;;;;;2.98;63.90;100699.34;5124242;28;20035;-78
2022/02/11 05:56:29;;;;;;;57.30;20.50;;;;;;;2.98;64.50;100697.59;5123848;28;20032;-76
2022/02/11 05:58:55;;;;;;;69.93;24.07;;;;;;;3.05;65.08;100706.75;5123882;27;20047;-77
2022/02/11 06:01:20;;;;;;;117.60;34.27;;;;;;;3.05;64.22;100677.97;5123457;27;20091;-77
2022/02/11 06:03:46;;;;;;;97.23;30.37;;;;;;;3.30;63.82;100694.84;5122731;28;20024;-77
2022/02/11 06:06:11;;;;;;;68.00;23.10;;;;;;;3.30;64.25;100702.72;5125445;27;20034;-77
2022/02/11 06:08:37;;;;;;;51.90;21.30;;;;;;;3.36;64.44;100710.19;5128834;27;20083;-77
2022/02/11 06:11:02;;;;;;;63.40;22.40;;;;;;;3.13;65.00;100686.25;5142421;27;20233;-77
2022/02/11 06:13:28;;;;;;;49.53;21.50;;;;;;;3.39;65.62;100721.31;5139420;27;20047;-78
2022/02/11 06:15:55;;;;;;;54.00;21.63;;;;;;;3.58;65.09;100702.72;5129106;27;20047;-78
2022/02/11 06:18:20;;;;;;;41.20;15.63;;;;;;;3.73;64.71;100693.06;5128237;27;20035;-76
2022/02/11 06:20:46;;;;;;;36.33;14.87;;;;;;;3.79;64.65;100705.78;5130269;27;20076;-78
2022/02/11 06:23:12;;;;;;;35.30;14.30;;;;;;;3.90;64.55;100710.34;5125347;27;20031;-75
2022/02/11 06:25:37;;;;;;;30.83;13.07;;;;;;;3.60;65.54;100700.00;5121325;28;20032;-76
2022/02/11 06:28:03;;;;;;;30.43;12.67;;;;;;;3.95;64.83;100703.88;5121726;28;20027;-77
2022/02/11 06:30:29;;;;;;;42.67;17.57;;;;;;;3.96;64.92;100702.09;5125113;27;20023;-77
2022/02/11 06:32:54;;;;;;;67.57;27.97;;;;;;;3.68;66.16;100706.44;5128393;27;20031;-75
2022/02/11 06:35:20;;;;;;;82.70;35.43;;;;;;;3.96;66.39;100708.19;5129203;27;20073;-73
2022/02/11 06:37:46;;;;;;;77.10;36.10;;;;;;;4.46;64.84;100691.88;5126195;27;20030;-76
2022/02/11 06:40:13;;;;;;;52.97;27.70;;;;;;;4.90;63.75;100711.72;5129947;28;20055;-74
2022/02/11 06:42:40;;;;;;;38.03;19.27;;;;;;;5.06;62.50;100699.22;5128873;28;20072;-73
2022/02/11 06:45:06;;;;;;;32.00;15.20;;;;;;;5.37;61.90;100702.44;5131505;28;20032;-76
2022/02/11 06:47:31;;;;;;;28.67;14.85;;;;;;;5.51;60.89;100697.06;5128905;27;20048;-78
2022/02/11 06:49:57;;;;;;;31.25;14.18;;;;;;;5.88;60.16;100705.00;5128669;27;20043;-75
2022/02/11 06:52:22;;;;;;;31.87;13.33;;;;;;;5.97;60.50;100709.63;5138438;28;20094;-75
2022/02/11 06:54:48;;;;;;;24.55;12.38;;;;;;;5.90;60.51;100711.00;5140683;27;20206;-77
2022/02/11 06:57:13;;;;;;;28.50;13.07;;;;;;;6.14;59.29;100704.00;5138084;27;20027;-77
2022/02/11 06:59:39;;;;;;;31.40;13.70;;;;;;;5.93;59.71;100681.88;5142304;27;20043;-79
2022/02/11 07:02:11;;;;;;;39.42;15.48;;;;;;;6.38;59.39;100704.88;5132903;27;20241;-79
2022/02/11 07:04:37;;;;;;;63.20;18.30;;;;;;;6.11;59.54;100682.34;5128462;28;20047;-75
2022/02/11 07:07:02;;;;;;;228.65;43.40;;;;;;;6.49;59.19;100688.31;5124443;28;20278;-77
2022/02/11 07:09:28;;;;;;;46.70;16.25;;;;;;;6.68;58.95;100714.09;5144996;27;20023;-77
2022/02/11 07:11:53;;;;;;;30.80;13.95;;;;;;;6.98;58.76;100703.09;5125139;28;20379;-78
2022/02/11 07:14:18;;;;;;;30.30;15.25;;;;;;;7.12;58.73;100712.56;5124527;27;20032;-73
2022/02/11 07:16:44;;;;;;;37.63;16.15;;;;;;;7.43;57.24;100700.56;5126695;27;20312;-77
2022/02/11 07:19:10;;;;;;;35.85;16.83;;;;;;;7.79;56.32;100708.22;5125387;28;20032;-77
2022/02/11 07:21:35;;;;;;;39.78;17.60;;;;;;;7.66;56.71;100703.09;5126240;28;20028;-76
2022/02/11 07:24:01;;;;;;;44.63;18.17;;;;;;;7.81;57.57;100706.31;5130672;28;20456;-77
2022/02/11 07:26:26;;;;;;;39.22;19.00;;;;;;;8.12;56.44;100691.53;5127673;27;20355;-78
2022/02/11 07:28:52;;;;;;;45.65;19.95;;;;;;;8.40;55.47;100703.38;5132835;27;20208;-78
2022/02/11 07:31:17;;;;;;;44.55;19.02;;;;;;;8.21;55.91;100687.31;5131647;27;20027;-76
2022/02/11 07:33:43;;;;;;;36.75;17.48;;;;;;;8.34;56.18;100697.75;5129826;27;20023;-78
2022/02/11 07:36:10;;;;;;;45.35;19.38;;;;;;;8.26;56.64;100698.31;5129201;27;20069;-79
2022/02/11 07:38:36;;;;;;;39.67;18.23;;;;;;;8.26;56.52;100699.16;5130638;27;20027;-77
2022/02/11 07:41:01;;;;;;;39.97;18.60;;;;;;;8.13;56.20;100685.28;5132785;27;20031;-76
2022/02/11 07:43:27;;;;;;;41.00;18.52;;;;;;;7.56;59.25;100688.94;5132839;27;20031;-76
2022/02/11 07:45:52;;;;;;;35.85;17.40;;;;;;;7.82;59.24;100684.25;5132752;27;20047;-75
2022/02/11 07:48:18;;;;;;;34.03;15.93;;;;;;;8.44;57.51;100694.25;5131533;27;21134;-74
2022/02/11 07:50:44;;;;;;;38.50;17.10;;;;;;;8.81;55.72;100683.28;5133951;27;20042;-77
2022/02/11 07:53:09;;;;;;;46.22;20.55;;;;;;;8.57;56.12;100676.44;5141146;27;20030;-76
2022/02/11 07:55:35;;;;;;;46.90;19.60;;;;;;;8.97;55.41;100683.69;5136305;27;20027;-76
2022/02/11 07:58:00;;;;;;;44.30;19.90;;;;;;;9.38;54.64;100682.84;5138826;27;20276;-75
2022/02/11 08:00:26;;;;;;;42.53;20.02;;;;;;;9.49;54.14;100674.84;5138730;27;20031;-77
2022/02/11 08:02:52;;;;;;;47.70;21.33;;;;;;;9.56;53.80;100660.09;5136633;27;20320;-77
2022/02/11 08:05:18;;;;;;;56.30;23.02;;;;;;;9.92;52.71;100649.91;5139163;27;20049;-77
2022/02/11 08:07:44;;;;;;;50.65;22.55;;;;;;;10.20;52.02;100670.34;5137494;27;20084;-76
2022/02/11 08:10:10;;;;;;;49.70;23.38;;;;;;;10.17;51.92;100660.00;5135696;27;20023;-78
2022/02/11 08:12:36;;;;;;;69.05;28.35;;;;;;;10.25;51.72;100648.75;5139795;27;20059;-76
2022/02/11 08:15:03;;;;;;;48.45;23.77;;;;;;;9.93;53.40;100630.44;5137215;27;20034;-77
2022/02/11 08:17:29;;;;;;;36.85;17.92;;;;;;;10.06;53.22;100644.25;5138560;27;20133;-79
2022/02/11 08:19:55;;;;;;;41.55;18.67;;;;;;;10.31;52.97;100652.66;5136624;27;20237;-76
2022/02/11 08:22:20;;;;;;;35.35;17.70;;;;;;;10.19;53.66;100657.22;5136913;27;20051;-77
2022/02/11 08:24:46;;;;;;;37.65;18.92;;;;;;;10.31;53.27;100661.44;5139592;27;20059;-77
2022/02/11 08:27:14;;;;;;;31.08;16.55;;;;;;;10.55;53.30;100658.41;5136658;27;20039;-77
2022/02/11 08:29:43;;;;;;;33.33;17.23;;;;;;;10.60;52.60;100648.22;5138754;27;20060;-77
2022/02/11 08:32:09;;;;;;;33.85;17.08;;;;;;;10.91;52.39;100640.94;5137838;27;20027;-77
2022/02/11 08:34:35;;;;;;;29.27;16.05;;;;;;;10.82;52.70;100647.94;5136613;27;20043;-77
2022/02/11 08:37:00;;;;;;;33.08;16.55;;;;;;;10.70;53.26;100642.94;5136868;27;20038;-77
2022/02/11 08:39:26;;;;;;;28.63;15.98;;;;;;;10.55;53.26;100640.72;5137044;27;20031;-77
2022/02/11 08:41:52;;;;;;;33.47;16.92;;;;;;;10.52;54.49;100642.81;5134814;27;20041;-76
2022/02/11 08:44:17;;;;;;;25.10;14.90;;;;;;;10.59;53.12;100638.63;5134147;27;20027;-77
2022/02/11 08:46:42;;;;;;;24.40;14.93;;;;;;;10.23;54.02;100614.47;5137566;27;20030;-76
2022/02/11 08:49:08;;;;;;;26.63;14.50;;;;;;;10.32;55.54;100641.94;5137784;27;20034;-76
2022/02/11 08:51:34;;;;;;;27.17;16.08;;;;;;;9.96;56.15;100640.75;5136579;27;20035;-77
2022/02/11 08:53:59;;;;;;;29.02;14.68;;;;;;;9.76;57.15;100631.09;5137967;27;20050;-76
2022/02/11 08:56:28;;;;;;;25.83;13.60;;;;;;;9.74;56.10;100614.50;5136739;27;20038;-77
2022/02/11 08:58:54;;;;;;;26.20;13.70;;;;;;;9.93;55.69;100641.84;5136206;27;20125;-77
2022/02/11 09:01:20;;;;;;;22.50;12.23;;;;;;;9.89;55.92;100627.22;5135540;27;20047;-76
2022/02/11 09:03:46;;;;;;;25.60;13.02;;;;;;;10.23;54.82;100634.81;5136837;27;20207;-76
2022/02/11 09:06:11;;;;;;;22.65;13.25;;;;;;;10.17;55.07;100627.41;5132364;27;20090;-78
2022/02/11 09:08:37;;;;;;;27.98;12.13;;;;;;;10.01;54.67;100621.81;5139313;27;20021;-77
2022/02/11 09:11:04;;;;;;;20.17;11.65;;;;;;;10.29;52.73;100620.19;5134988;27;20084;-78
2022/02/11 09:13:30;;;;;;;20.25;12.18;;;;;;;10.40;52.15;100628.88;5135995;27;20100;-78
2022/02/11 09:15:56;;;;;;;21.27;12.13;;;;;;;10.46;52.29;100633.59;5137844;27;20039;-78
2022/02/11 09:18:22;;;;;;;18.73;11.43;;;;;;;10.71;50.79;100623.41;5135622;27;20041;-75
2022/02/11 09:20:48;;;;;;;24.65;11.63;;;;;;;10.67;50.62;100622.84;5136092;27;20027;-75
2022/02/11 09:23:14;;;;;;;23.98;12.45;;;;;;;10.71;49.69;100618.94;5137291;27;20229;-77
2022/02/11 09:25:40;;;;;;;18.88;11.02;;;;;;;11.04;48.17;100603.53;5132898;27;20032;-77
2022/02/11 09:28:05;;;;;;;23.70;12.27;;;;;;;11.26;47.84;100602.34;5128035;27;20058;-75
2022/02/11 09:30:34;;;;;;;24.65;11.32;;;;;;;11.57;47.14;100608.25;5130624;27;20236;-77
2022/02/11 09:33:00;;;;;;;21.77;12.18;;;;;;;11.46;46.02;100583.59;5128997;27;20035;-76
2022/02/11 09:35:30;;;;;;;24.50;12.45;;;;;;;11.64;46.70;100586.28;5121159;28;20085;-77
2022/02/11 09:37:56;;;;;;;24.17;12.30;;;;;;;11.81;45.75;100589.97;5123201;27;20028;-74
2022/02/11 09:40:22;;;;;;;24.35;11.85;;;;;;;12.05;44.97;100598.19;5126651;27;20035;-75
2022/02/11 09:42:52;;;;;;;23.83;11.77;;;;;;;12.12;44.66;100590.47;5131403;27;20051;-76
2022/02/11 09:45:20;;;;;;;21.45;11.65;;;;;;;11.94;45.90;100585.13;5129613;27;20030;-75
2022/02/11 09:47:47;;;;;;;18.75;11.48;;;;;;;11.92;44.91;100586.28;5125698;27;20098;-74
2022/02/11 09:50:13;;;;;;;20.30;10.10;;;;;;;11.71;44.32;100571.44;5125441;27;20035;-76
2022/02/11 09:52:42;;;;;;;23.58;11.27;;;;;;;11.68;45.03;100569.09;5122323;28;20036;-75
2022/02/11 09:57:53;;;;;;;23.98;10.18;;;;;;;11.23;45.75;100562.88;5122929;28;20030;-76
2022/02/11 10:00:21;;;;;;;19.65;10.05;;;;;;;11.07;47.83;100553.72;5127453;27;20036;-76
2022/02/11 10:03:01;;;;;;;19.30;10.82;;;;;;;10.95;46.28;100536.34;5125892;27;20155;-77
2022/02/11 10:05:30;;;;;;;20.80;9.60;;;;;;;11.04;46.16;100550.53;5126247;27;20081;-76
2022/02/11 10:07:57;;;;;;;19.48;11.20;;;;;;;11.25;46.66;100532.59;5121706;27;20061;-74
2022/02/11 10:13:10;;;;;;;16.85;8.50;;;;;;;11.31;44.32;100531.16;5129895;27;20038;-75
2022/02/11 10:15:38;;;;;;;16.98;8.57;;;;;;;11.19;44.46;100518.09;5131991;27;20064;-75
2022/02/11 10:18:07;;;;;;;17.10;8.55;;;;;;;11.28;43.52;100502.28;5128013;27;20028;-75
2022/02/11 10:20:42;;;;;;;14.38;8.57;;;;;;;11.52;42.10;100515.84;5131817;27;20038;-75
2022/02/11 10:23:23;;;;;;;14.07;7.30;;;;;;;11.67;42.79;100517.00;5123638;27;20035;-75
2022/02/11 10:26:10;;;;;;;15.35;9.52;;;;;;;11.58;44.51;100507.28;5120555;28;20039;-75
2022/02/11 10:28:52;;;;;;;14.73;8.52;;;;;;;11.27;45.76;100506.75;5122794;27;20023;-75
2022/02/11 10:31:21;;;;;;;14.13;8.40;;;;;;;11.67;43.52;100495.78;5132230;27;20019;-74
2022/02/11 10:34:08;;;;;;;14.82;7.55;;;;;;;11.77;43.50;100493.06;5126719;28;20241;-78
2022/02/11 10:36:47;;;;;;;16.90;8.07;;;;;;;11.96;42.42;100477.00;5122640;28;20038;-74
2022/02/11 10:39:21;;;;;;;18.90;9.55;;;;;;;12.01;42.41;100480.03;5129682;27;20090;-74
2022/02/11 10:41:54;;;;;;;16.73;7.47;;;;;;;12.17;41.32;100473.19;5141955;27;20039;-75
2022/02/11 10:44:25;;;;;;;12.82;7.50;;;;;;;11.93;42.58;100464.03;5134298;27;20108;-76
2022/02/11 10:46:56;;;;;;;18.05;8.45;;;;;;;12.19;41.15;100473.88;5129921;27;20047;-77
2022/02/11 10:49:37;;;;;;;20.70;9.38;;;;;;;12.27;42.18;100464.13;5126212;27;20035;-74
2022/02/11 10:52:13;;;;;;;19.05;9.35;;;;;;;11.70;44.03;100468.13;5130734;28;20039;-74
2022/02/11 10:54:40;;;;;;;15.25;8.73;;;;;;;11.88;41.92;100466.31;5127765;28;20020;-74
2022/02/11 10:57:09;;;;;;;14.00;8.73;;;;;;;11.93;41.98;100460.56;5124587;28;20259;-78
2022/02/11 10:59:36;;;;;;;13.77;8.05;;;;;;;11.98;42.70;100452.97;5128970;28;20308;-79
2022/02/11 11:02:07;;;;;;;18.50;9.05;;;;;;;12.04;43.52;100455.84;5127639;27;20224;-77
2022/02/11 11:04:33;;;;;;;13.10;8.10;;;;;;;12.45;41.77;100450.81;5133794;27;20242;-77
2022/02/11 11:06:59;;;;;;;13.00;8.38;;;;;;;12.49;41.08;100438.91;5135169;27;20031;-77
2022/02/11 11:09:26;;;;;;;10.35;7.43;;;;;;;12.05;42.66;100408.91;5129269;27;20031;-76
2022/02/11 11:11:57;;;;;;;15.23;8.15;;;;;;;12.04;41.68;100433.78;5133364;27;20320;-74
2022/02/11 11:14:24;;;;;;;15.52;7.82;;;;;;;12.11;42.20;100437.47;5127300;27;20068;-77
2022/02/11 11:16:52;;;;;;;15.75;8.07;;;;;;;12.18;41.62;100427.06;5129193;27;20027;-77
2022/02/11 11:19:18;;;;;;;12.63;7.47;;;;;;;12.35;41.12;100412.91;5133283;27;20038;-77
2022/02/11 11:21:47;;;;;;;12.20;7.90;;;;;;;12.29;41.39;100427.63;5124285;28;20278;-77
2022/02/11 11:24:13;;;;;;;14.95;7.07;;;;;;;12.45;41.09;100410.97;5124180;27;20051;-76
2022/02/11 11:26:46;;;;;;;14.07;7.97;;;;;;;12.31;43.05;100417.69;5126456;27;20051;-77
2022/02/11 11:29:18;;;;;;;13.65;8.13;;;;;;;12.25;42.84;100414.84;5132943;27;20019;-74
2022/02/11 11:31:58;;;;;;;10.88;7.35;;;;;;;12.30;43.08;100413.38;5135771;27;20255;-76
2022/02/11 11:34:27;;;;;;;11.90;7.47;;;;;;;12.07;43.31;100401.59;5133147;27;20051;-76
2022/02/11 11:37:04;;;;;;;12.18;7.53;;;;;;;11.95;42.68;100402.84;5130953;27;20027;-77
2022/02/11 11:39:29;;;;;;;12.68;7.75;;;;;;;12.36;42.27;100404.78;5131248;27;20329;-77
2022/02/11 11:42:30;;;;;;;13.48;7.78;;;;;;;12.47;42.99;100396.53;5132228;27;20035;-78
2022/02/11 11:44:57;;;;;;;13.00;7.30;;;;;;;12.53;42.34;100386.31;5093854;28;20059;-78
2022/02/11 11:47:28;;;;;;;13.18;7.43;;;;;;;12.44;42.83;100388.88;5123882;27;20039;-75
2022/02/11 11:49:54;;;;;;;14.48;7.53;;;;;;;12.65;42.93;100387.69;5131317;27;20031;-77
2022/02/11 11:52:20;;;;;;;16.90;8.43;;;;;;;12.33;42.24;100383.84;5130036;27;20377;-76
2022/02/11 11:54:46;;;;;;;14.38;7.90;;;;;;;12.38;42.78;100381.56;5131932;27;20031;-78
2022/02/11 11:57:14;;;;;;;13.10;7.82;;;;;;;12.42;43.05;100359.00;5126776;27;20035;-74
2022/02/11 11:59:49;;;;;;;14.40;7.85;;;;;;;12.44;42.98;100367.63;5130904;27;20061;-77
2022/02/11 12:02:19;;;;;;;10.35;6.28;;;;;;;12.44;42.13;100366.81;5137821;27;20022;-77
2022/02/11 12:04:46;;;;;;;11.95;5.97;;;;;;;12.62;40.18;100354.28;5128438;27;20042;-77
2022/02/11 12:07:18;;;;;;;11.00;6.32;;;;;;;12.68;39.29;100360.78;5130763;27;20049;-76
2022/02/11 12:09:45;;;;;;;12.63;6.78;;;;;;;12.65;39.09;100358.47;5144860;27;20030;-76
2022/02/11 12:12:14;;;;;;;12.02;6.32;;;;;;;12.65;39.06;100335.38;5137444;27;20094;-77
2022/02/11 12:14:41;;;;;;;12.05;7.30;;;;;;;12.52;40.87;100326.19;5129087;27;20031;-77
2022/02/11 12:17:09;;;;;;;12.68;7.30;;;;;;;12.51;41.39;100343.13;5131344;27;21519;-77
2022/02/11 12:19:35;;;;;;;12.93;7.47;;;;;;;12.75;40.57;100341.38;5128066;27;20054;-78
2022/02/11 12:22:01;;;;;;;11.65;7.03;;;;;;;12.76;41.51;100342.22;5129233;27;20035;-77
2022/02/11 12:27:21;;;;;;;12.45;7.20;;;;;;;12.99;41.13;100323.84;5125716;27;20050;-77
2022/02/11 12:29:49;;;;;;;13.55;7.22;;;;;;;13.03;40.72;100323.34;5129514;27;20051;-78
2022/02/11 12:32:16;;;;;;;12.27;6.88;;;;;;;12.85;42.74;100324.47;5130206;27;20129;-77
2022/02/11 12:34:53;;;;;;;12.00;7.78;;;;;;;12.99;40.58;100323.84;5128512;27;20038;-76
2022/02/11 12:37:19;;;;;;;14.27;8.23;;;;;;;12.95;40.37;100327.81;5130867;27;20040;-77
2022/02/11 12:39:46;;;;;;;12.15;8.23;;;;;;;13.19;39.34;100321.72;5127432;27;20069;-78
2022/02/11 12:42:17;;;;;;;13.38;7.90;;;;;;;13.18;39.26;100320.91;5129040;27;20057;-78
2022/02/11 12:44:42;;;;;;;11.90;7.63;;;;;;;13.23;39.97;100305.28;5129916;27;20310;-78
2022/02/11 12:47:08;;;;;;;17.45;7.68;;;;;;;13.22;40.03;100300.97;5122581;28;20084;-77
2022/02/11 12:49:43;;;;;;;11.55;7.85;;;;;;;13.06;40.00;100308.91;5123401;28;20042;-77
2022/02/11 12:52:08;;;;;;;15.75;8.68;;;;;;;13.10;41.33;100300.41;5133321;27;20032;-77
2022/02/11 12:54:34;;;;;;;13.65;8.35;;;;;;;13.56;40.77;100302.66;5130588;27;20019;-78
2022/02/11 12:57:02;;;;;;;13.02;8.00;;;;;;;13.37;40.64;100288.66;5129567;27;20340;-79
2022/02/11 12:59:29;;;;;;;13.38;7.57;;;;;;;13.58;39.46;100296.16;5131369;27;20061;-77
2022/02/11 13:01:54;;;;;;;16.05;7.70;;;;;;;13.40;40.22;100292.81;5123453;28;20031;-77
2022/02/11 13:04:21;;;;;;;11.20;7.30;;;;;;;13.33;40.46;100270.53;5126245;27;20216;-77
2022/02/11 13:06:47;;;;;;;13.27;7.93;;;;;;;13.40;40.44;100268.88;5134875;27;20333;-79
2022/02/11 13:09:13;;;;;;;13.43;7.53;;;;;;;13.66;39.19;100276.69;5131795;27;20220;-75
2022/02/11 13:11:41;;;;;;;12.65;7.53;;;;;;;13.68;39.13;100278.19;5124372;27;20032;-77
2022/02/11 13:14:08;;;;;;;10.45;6.75;;;;;;;13.56;39.38;100278.69;5127517;27;20028;-77
2022/02/11 13:16:35;;;;;;;13.32;7.38;;;;;;;13.79;38.79;100276.16;5128431;27;20040;-77
2022/02/11 13:19:11;;;;;;;20.67;8.23;;;;;;;13.66;39.83;100277.53;5126552;27;20217;-79
2022/02/11 13:21:38;;;;;;;12.18;7.30;;;;;;;13.63;40.42;100269.03;5131769;27;20027;-79
2022/02/11 13:24:05;;;;;;;12.60;7.22;;;;;;;13.73;39.44;100283.00;5131049;27;20023;-77
2022/02/11 13:26:31;;;;;;;13.52;7.97;;;;;;;13.81;39.06;100279.50;5130158;27;20042;-75
2022/02/11 13:28:57;;;;;;;15.00;8.43;;;;;;;13.51;39.86;100247.25;5127094;27;20031;-75
2022/02/11 13:31:23;;;;;;;13.82;7.65;;;;;;;13.79;39.22;100261.03;5139588;27;20055;-75
2022/02/11 13:34:07;;;;;;;13.52;7.70;;;;;;;13.86;39.29;100266.50;5143257;27;20030;-75
2022/02/11 13:36:33;;;;;;;14.38;7.70;;;;;;;13.96;38.74;100264.47;5134939;27;20034;-75
2022/02/11 13:39:01;;;;;;;12.75;7.28;;;;;;;13.90;39.19;100263.31;5126085;27;20220;-76
2022/02/11 13:41:29;;;;;;;12.55;7.75;;;;;;;13.70;39.02;100257.56;5130027;27;20035;-77
2022/02/11 13:44:03;;;;;;;11.85;7.47;;;;;;;14.17;38.96;100287.88;5130225;27;20321;-77
2022/02/11 13:46:29;;;;;;;15.82;8.18;;;;;;;14.06;38.85;100278.41;5133164;27;20023;-77
2022/02/11 13:48:57;;;;;;;16.08;7.70;;;;;;;14.21;38.77;100281.19;5132016;27;20031;-78
2022/02/11 13:51:23;;;;;;;15.30;8.13;;;;;;;14.38;38.17;100280.13;5142825;27;20061;-79
2022/02/11 13:53:54;;;;;;;15.80;9.02;;;;;;;14.12;38.94;100277.72;5139020;27;20380;-79
2022/02/11 13:56:34;;;;;;;16.25;9.07;;;;;;;13.93;39.40;100270.97;5130293;27;20070;-77
2022/02/11 13:59:10;;;;;;;13.20;8.05;;;;;;;14.46;38.78;100279.28;5129099;27;20106;-78
2022/02/11 14:01:42;;;;;;;12.05;7.28;;;;;;;14.37;39.38;100276.63;5133087;27;20426;-77
2022/02/11 14:04:19;;;;;;;14.57;8.45;;;;;;;14.38;38.43;100269.47;5128073;27;20043;-79
2022/02/11 14:06:52;;;;;;;11.48;7.40;;;;;;;14.21;38.08;100263.38;5133296;27;20035;-77
2022/02/11 14:09:37;;;;;;;14.57;7.38;;;;;;;14.30;38.18;100265.00;5127525;27;20035;-79
2022/02/11 14:12:04;;;;;;;12.98;7.18;;;;;;;14.30;38.48;100261.50;5129861;27;20039;-77
2022/02/11 14:14:31;;;;;;;11.52;6.60;;;;;;;14.51;37.94;100267.09;5127616;27;20019;-77
2022/02/11 14:17:00;;;;;;;10.50;6.88;;;;;;;14.34;39.18;100266.31;5123972;27;20027;-78
2022/02/11 14:19:27;;;;;;;11.40;7.22;;;;;;;14.03;38.10;100268.94;5131344;27;20022;-77
2022/02/11 14:22:00;;;;;;;14.52;6.57;;;;;;;14.06;38.63;100251.78;5124935;27;20329;-78
2022/02/11 14:24:27;;;;;;;11.95;6.35;;;;;;;14.44;38.18;100265.31;5123486;27;20216;-77
2022/02/11 14:26:53;;;;;;;9.65;6.25;;;;;;;14.49;37.89;100265.63;5123409;28;20050;-77
2022/02/11 14:29:20;;;;;;;14.73;9.45;;;;;;;14.15;39.64;100245.44;5123564;28;20043;-77
2022/02/11 14:31:47;;;;;;;10.23;6.53;;;;;;;14.46;40.13;100257.97;5123594;27;20035;-79
2022/02/11 14:34:13;;;;;;;11.52;6.63;;;;;;;14.41;41.05;100266.47;5121971;28;20289;-77
2022/02/11 14:36:42;;;;;;;9.15;6.45;;;;;;;14.27;39.87;100256.53;5122693;28;20050;-78
2022/02/11 14:39:13;;;;;;;10.27;6.22;;;;;;;14.29;40.22;100262.53;5122228;28;20020;-79
2022/02/11 14:41:48;;;;;;;10.90;6.70;;;;;;;14.31;40.32;100263.19;5123013;28;20016;-78
2022/02/11 14:44:14;;;;;;;12.50;6.30;;;;;;;14.33;41.83;100248.69;5123250;28;20016;-77
2022/02/11 14:46:39;;;;;;;10.20;6.38;;;;;;;14.38;42.33;100254.31;5123318;28;20031;-76
2022/02/11 14:49:05;;;;;;;14.90;7.07;;;;;;;14.21;42.10;100252.72;5123328;28;20023;-79
2022/02/11 14:51:34;;;;;;;11.25;6.55;;;;;;;14.16;41.66;100259.56;5123363;28;20059;-78
2022/02/11 14:54:08;;;;;;;12.57;7.28;;;;;;;14.02;42.65;100245.16;5123306;28;20312;-77
2022/02/11 14:56:37;;;;;;;16.33;7.45;;;;;;;14.13;43.58;100239.44;5123258;28;20024;-76
2022/02/11 14:59:04;;;;;;;16.40;7.63;;;;;;;14.06;45.38;100257.94;5123395;28;20216;-79
2022/02/11 15:01:29;;;;;;;15.60;7.03;;;;;;;14.08;43.84;100257.78;5121911;28;20042;-78
2022/02/11 15:03:56;;;;;;;14.18;7.53;;;;;;;13.95;44.42;100255.66;5123116;28;20035;-77
2022/02/11 15:06:22;;;;;;;10.95;7.40;;;;;;;13.69;44.47;100241.75;5122877;28;20035;-76
2022/02/11 15:08:48;;;;;;;15.00;7.13;;;;;;;13.90;44.00;100243.88;5139019;27;20032;-77
2022/02/11 15:11:13;;;;;;;12.15;7.22;;;;;;;13.88;43.98;100256.50;5122823;28;20259;-77
2022/02/11 15:13:39;;;;;;;12.02;7.50;;;;;;;13.85;44.37;100259.53;5125072;28;20035;-79